createdAt,value
2018-09-15T00:00:38.130Z,99877.34
2018-09-15T00:03:07.222Z,99881.01
2018-09-15T00:05:35.957Z,99881.30
2018-09-15T00:08:04.711Z,99881.06
2018-09-15T00:10:33.504Z,99881.95
2018-09-15T00:13:02.314Z,99876.78
2018-09-15T00:15:31.047Z,99876.05
2018-09-15T00:18:01.257Z,99871.20
2018-09-15T00:20:29.981Z,99870.87
2018-09-15T00:22:58.771Z,99869.34
2018-09-15T00:25:27.463Z,99877.42
2018-09-15T00:27:56.204Z,99871.59
2018-09-15T00:30:24.947Z,99867.64
2018-09-15T00:32:53.704Z,99863.39
2018-09-15T00:35:22.474Z,99866.00
2018-09-15T00:37:51.434Z,99865.80
2018-09-15T00:40:20.179Z,99863.39
2018-09-15T00:42:48.911Z,99859.22
2018-09-15T00:45:17.671Z,99868.05
2018-09-15T00:47:46.358Z,99851.34
2018-09-15T00:50:15.150Z,99853.91
2018-09-15T00:52:43.884Z,99851.39
2018-09-15T00:55:12.639Z,99845.44
2018-09-15T00:57:41.306Z,99845.44
2018-09-15T01:00:10.036Z,99846.44
2018-09-15T01:02:38.736Z,99844.45
2018-09-15T01:05:07.459Z,99845.22
2018-09-15T01:07:36.193Z,99843.08
2018-09-15T01:10:05.025Z,99841.24
2018-09-15T01:12:33.727Z,99842.20
2018-09-15T01:15:02.407Z,99834.72
2018-09-15T01:17:31.136Z,99845.64
2018-09-15T01:19:59.891Z,99840.95
2018-09-15T01:22:28.567Z,99841.02
2018-09-15T01:24:57.282Z,99845.34
2018-09-15T01:27:25.936Z,99847.92
2018-09-15T01:30:01.330Z,99849.22
2018-09-15T01:32:30.032Z,99851.38
2018-09-15T01:34:58.730Z,99843.66
2018-09-15T01:37:27.437Z,99853.17
2018-09-15T01:39:56.130Z,99847.49
2018-09-15T01:42:25.414Z,99850.97
2018-09-15T01:44:54.086Z,99848.38
2018-09-15T01:47:22.773Z,99849.19
2018-09-15T01:49:51.558Z,99849.34
2018-09-15T01:52:20.290Z,99857.10
2018-09-15T01:54:48.977Z,99861.27
2018-09-15T01:57:17.617Z,99866.45
2018-09-15T01:59:46.295Z,99857.84
2018-09-15T02:02:15.005Z,99861.42
2018-09-15T02:04:43.687Z,99860.42
2018-09-15T02:07:12.380Z,99856.24
2018-09-15T02:09:41.054Z,99857.20
2018-09-15T02:12:09.850Z,99857.50
2018-09-15T02:14:38.725Z,99856.87
2018-09-15T02:17:07.439Z,99857.33
2018-09-15T02:19:36.099Z,99854.15
2018-09-15T02:22:04.833Z,99861.05
2018-09-15T02:24:34.306Z,99860.13
2018-09-15T02:27:03.025Z,99862.02
2018-09-15T02:29:31.728Z,99861.72
2018-09-15T02:32:00.453Z,99857.29
2018-09-15T02:34:29.119Z,99862.27
2018-09-15T02:36:57.797Z,99860.63
2018-09-15T02:39:26.590Z,99863.77
2018-09-15T02:41:55.301Z,99866.77
2018-09-15T02:44:23.990Z,99871.48
2018-09-15T02:46:52.694Z,99875.93
2018-09-15T02:49:21.378Z,99871.83
2018-09-15T02:51:50.130Z,99864.37
2018-09-15T02:54:18.879Z,99872.50
2018-09-15T02:56:47.559Z,99865.92
2018-09-15T02:59:16.266Z,99860.94
2018-09-15T03:01:44.966Z,99860.84
2018-09-15T03:04:13.691Z,99857.16
2018-09-15T03:06:42.378Z,99859.05
2018-09-15T03:09:12.376Z,99859.52
2018-09-15T03:11:41.093Z,99865.94
2018-09-15T03:14:09.926Z,99867.73
2018-09-15T03:16:39.100Z,99877.66
2018-09-15T03:19:07.777Z,99878.66
2018-09-15T03:21:36.451Z,99877.73
2018-09-15T03:24:05.256Z,99879.37
2018-09-15T03:26:33.895Z,99879.91
2018-09-15T03:29:02.569Z,99885.18
2018-09-15T03:31:31.246Z,99890.21
2018-09-15T03:33:59.910Z,99894.22
2018-09-15T03:36:28.622Z,99901.91
2018-09-15T03:38:57.292Z,99901.13
2018-09-15T03:41:26.000Z,99909.39
2018-09-15T03:43:54.678Z,99911.87
2018-09-15T03:46:23.384Z,99914.14
2018-09-15T03:48:52.055Z,99907.11
2018-09-15T03:51:20.818Z,99905.41
2018-09-15T03:53:49.482Z,99907.27
2018-09-15T03:56:18.194Z,99908.94
2018-09-15T03:58:46.895Z,99905.07
2018-09-15T04:01:15.558Z,99906.97
2018-09-15T04:03:44.244Z,99905.03
2018-09-15T04:06:12.959Z,99917.16
2018-09-15T04:08:41.626Z,99913.50
2018-09-15T04:11:10.300Z,99912.50
2018-09-15T04:13:38.993Z,99908.33
2018-09-15T04:16:07.670Z,99909.94
2018-09-15T04:18:36.342Z,99915.64
2018-09-15T04:21:05.042Z,99913.05
2018-09-15T04:23:33.712Z,99923.54
2018-09-15T04:26:02.409Z,99925.58
2018-09-15T04:28:31.118Z,99940.23
2018-09-15T04:30:59.830Z,99937.80
2018-09-15T04:33:28.496Z,99944.86
2018-09-15T04:35:57.197Z,99944.51
2018-09-15T04:38:25.956Z,99942.75
2018-09-15T04:40:54.606Z,99950.17
2018-09-15T04:43:23.355Z,99946.70
2018-09-15T04:45:52.179Z,99951.59
2018-09-15T04:48:20.886Z,99945.94
2018-09-15T04:50:49.599Z,99948.76
2018-09-15T04:53:18.344Z,99954.28
2018-09-15T04:55:47.389Z,99948.19
2018-09-15T04:58:16.078Z,99960.75
2018-09-15T05:00:44.848Z,99961.13
2018-09-15T05:03:13.647Z,99965.86
2018-09-15T05:05:42.331Z,99968.15
2018-09-15T05:08:11.004Z,99970.70
2018-09-15T05:10:39.701Z,99967.04
2018-09-15T05:13:08.527Z,99975.42
2018-09-15T05:15:37.582Z,99975.46
2018-09-15T05:18:06.421Z,99981.67
2018-09-15T05:20:35.157Z,99988.45
2018-09-15T05:23:03.844Z,99992.14
2018-09-15T05:25:32.552Z,99998.27
2018-09-15T05:28:01.261Z,100003.74
2018-09-15T05:30:30.025Z,99998.34
2018-09-15T05:32:58.786Z,99987.55
2018-09-15T05:35:27.594Z,99989.91
2018-09-15T05:37:56.330Z,99999.20
2018-09-15T05:40:25.207Z,100000.13
2018-09-15T05:42:53.983Z,99996.38
2018-09-15T05:45:22.666Z,99990.83
2018-09-15T05:47:51.439Z,99994.02
2018-09-15T05:50:20.167Z,100000.37
2018-09-15T05:52:48.928Z,100003.70
2018-09-15T05:55:17.678Z,100005.66
2018-09-15T05:57:46.435Z,100011.99
2018-09-15T06:00:15.280Z,100013.95
2018-09-15T06:02:44.034Z,100018.02
2018-09-15T06:05:12.768Z,100026.38
2018-09-15T06:07:41.583Z,100027.64
2018-09-15T06:10:10.375Z,100025.38
2018-09-15T06:12:39.095Z,100034.84
2018-09-15T06:15:07.898Z,100030.05
2018-09-15T06:17:36.823Z,100024.53
2018-09-15T06:20:05.907Z,100037.95
2018-09-15T06:22:34.605Z,100028.45
2018-09-15T06:25:03.419Z,100029.74
2018-09-15T06:27:33.717Z,100021.85
2018-09-15T06:30:02.550Z,100033.16
2018-09-15T06:32:31.449Z,100032.36
2018-09-15T06:35:00.204Z,100022.32
2018-09-15T06:37:28.927Z,100021.34
2018-09-15T06:39:57.651Z,100030.50
2018-09-15T06:42:26.399Z,100032.72
2018-09-15T06:44:55.121Z,100037.66
2018-09-15T06:47:23.904Z,100027.35
2018-09-15T06:49:52.710Z,100027.43
2018-09-15T06:52:21.452Z,100035.28
2018-09-15T06:54:50.201Z,100034.67
2018-09-15T06:57:19.023Z,100037.54
2018-09-15T06:59:47.771Z,100042.22
2018-09-15T07:02:17.493Z,100045.51
2018-09-15T07:04:46.228Z,100068.08
2018-09-15T07:07:15.002Z,100057.78
2018-09-15T07:09:43.771Z,100070.56
2018-09-15T07:12:12.525Z,100056.84
2018-09-15T07:14:41.323Z,100049.74
2018-09-15T07:17:10.058Z,100051.09
2018-09-15T07:19:38.774Z,100047.91
2018-09-15T07:22:07.654Z,100046.55
2018-09-15T07:24:36.519Z,100045.55
2018-09-15T07:27:05.276Z,100045.73
2018-09-15T07:29:34.321Z,100049.18
2018-09-15T07:32:03.137Z,100058.27
2018-09-15T07:34:31.907Z,100055.58
2018-09-15T07:37:00.708Z,100062.80
2018-09-15T07:39:29.575Z,100066.20
2018-09-15T07:41:58.311Z,100068.11
2018-09-15T07:44:27.036Z,100070.60
2018-09-15T07:46:55.782Z,100063.97
2018-09-15T07:49:24.524Z,100067.17
2018-09-15T07:51:53.321Z,100067.58
2018-09-15T07:54:22.110Z,100063.75
2018-09-15T07:56:50.883Z,100059.08
2018-09-15T07:59:19.807Z,100068.56
2018-09-15T08:01:48.703Z,100072.48
2018-09-15T08:04:17.535Z,100063.06
2018-09-15T08:06:46.242Z,100073.94
2018-09-15T08:09:15.078Z,100068.06
2018-09-15T08:11:43.832Z,100065.52
2018-09-15T08:14:12.766Z,100063.64
2018-09-15T08:16:41.599Z,100064.84
2018-09-15T08:19:10.363Z,100077.62
2018-09-15T08:21:39.346Z,100079.20
2018-09-15T08:24:08.383Z,100076.49
2018-09-15T08:26:37.184Z,100085.00
2018-09-15T08:29:05.789Z,100075.61
2018-09-15T08:31:34.504Z,100070.88
2018-09-15T08:34:03.262Z,100076.72
2018-09-15T08:36:31.996Z,100077.20
2018-09-15T08:39:06.043Z,100074.73
2018-09-15T08:41:34.750Z,100079.72
2018-09-15T08:44:03.707Z,100078.35
2018-09-15T08:46:37.585Z,100079.59
2018-09-15T08:49:06.692Z,100086.59
2018-09-15T08:51:35.419Z,100092.50
2018-09-15T08:54:04.111Z,100095.45
2018-09-15T08:56:32.831Z,100094.44
2018-09-15T08:59:01.714Z,100090.66
2018-09-15T09:01:30.708Z,100081.03
2018-09-15T09:03:59.413Z,100090.30
2018-09-15T09:06:28.190Z,100077.61
2018-09-15T09:08:56.944Z,100090.10
2018-09-15T09:11:25.740Z,100094.33
2018-09-15T09:13:54.530Z,100097.96
2018-09-15T09:16:23.381Z,100094.52
2018-09-15T09:18:52.105Z,100095.66
2018-09-15T09:21:20.842Z,100087.14
2018-09-15T09:23:49.611Z,100095.45
2018-09-15T09:26:18.420Z,100085.23
2018-09-15T09:28:47.086Z,100080.41
2018-09-15T09:31:15.844Z,100089.55
2018-09-15T09:33:44.714Z,100087.05
2018-09-15T09:36:13.518Z,100095.36
2018-09-15T09:38:42.239Z,100106.83
2018-09-15T09:41:11.020Z,100108.05
2018-09-15T09:43:39.801Z,100115.81
2018-09-15T09:46:08.572Z,100112.90
2018-09-15T09:48:37.292Z,100114.33
2018-09-15T09:51:06.322Z,100116.28
2018-09-15T09:53:35.125Z,100119.38
2018-09-15T09:56:03.849Z,100117.87
2018-09-15T09:58:32.612Z,100121.16
2018-09-15T10:01:06.474Z,100119.73
2018-09-15T10:03:35.233Z,100118.19
2018-09-15T10:06:03.924Z,100127.84
2018-09-15T10:08:35.508Z,100125.13
2018-09-15T10:11:04.218Z,100123.05
2018-09-15T10:13:33.031Z,100132.90
2018-09-15T10:16:01.862Z,100128.07
2018-09-15T10:18:30.499Z,100128.06
2018-09-15T10:20:59.219Z,100117.12
2018-09-15T10:23:28.006Z,100119.73
2018-09-15T10:25:56.800Z,100120.73
2018-09-15T10:28:25.576Z,100124.93
2018-09-15T10:30:54.294Z,100114.87
2018-09-15T10:33:23.000Z,100119.27
2018-09-15T10:35:51.894Z,100122.80
2018-09-15T10:38:20.717Z,100127.45
2018-09-15T10:40:49.719Z,100128.98
2018-09-15T10:43:18.530Z,100132.41
2018-09-15T10:45:47.387Z,100128.37
2018-09-15T10:48:16.110Z,100132.88
2018-09-15T10:50:44.832Z,100118.98
2018-09-15T10:53:13.534Z,100125.58
2018-09-15T10:55:42.225Z,100118.32
2018-09-15T10:58:10.971Z,100111.09
2018-09-15T11:00:39.653Z,100114.81
2018-09-15T11:03:08.418Z,100108.20
2018-09-15T11:05:37.134Z,100115.55
2018-09-15T11:08:05.968Z,100121.39
2018-09-15T11:10:34.671Z,100117.47
2018-09-15T11:13:03.385Z,100116.39
2018-09-15T11:15:32.233Z,100127.96
2018-09-15T11:18:01.055Z,100121.80
2018-09-15T11:20:29.882Z,100111.86
2018-09-15T11:22:58.594Z,100114.17
2018-09-15T11:25:27.328Z,100117.44
2018-09-15T11:27:56.122Z,100128.02
2018-09-15T11:30:24.880Z,100117.19
2018-09-15T11:32:53.719Z,100129.79
2018-09-15T11:35:22.482Z,100109.66
2018-09-15T11:37:51.248Z,100101.60
2018-09-15T11:40:19.965Z,100102.03
2018-09-15T11:42:48.686Z,100105.23
2018-09-15T11:45:17.440Z,100098.05
2018-09-15T11:47:46.220Z,100101.11
2018-09-15T11:50:15.649Z,100110.22
2018-09-15T11:52:44.435Z,100102.52
2018-09-15T11:55:13.299Z,100105.47
2018-09-15T11:57:42.068Z,100102.73
2018-09-15T12:00:10.915Z,100096.77
2018-09-15T12:02:39.715Z,100099.13
2018-09-15T12:05:08.474Z,100105.88
2018-09-15T12:07:37.242Z,100108.13
2018-09-15T12:10:06.020Z,100112.48
2018-09-15T12:12:34.746Z,100113.92
2018-09-15T12:15:03.496Z,100103.55
2018-09-15T12:17:32.200Z,100101.86
2018-09-15T12:20:00.971Z,100108.48
2018-09-15T12:22:29.674Z,100100.91
2018-09-15T12:24:58.727Z,100095.59
2018-09-15T12:27:27.428Z,100099.19
2018-09-15T12:29:56.207Z,100095.67
2018-09-15T12:32:24.947Z,100101.67
2018-09-15T12:34:53.691Z,100102.43
2018-09-15T12:37:22.508Z,100103.05
2018-09-15T12:39:51.299Z,100099.36
2018-09-15T12:42:20.110Z,100096.69
2018-09-15T12:44:48.845Z,100103.32
2018-09-15T12:47:17.671Z,100093.92
2018-09-15T12:49:46.374Z,100101.08
2018-09-15T12:52:15.252Z,100103.84
2018-09-15T12:54:44.031Z,100089.25
2018-09-15T12:57:13.426Z,100091.75
2018-09-15T12:59:42.246Z,100094.30
2018-09-15T13:02:11.341Z,100093.44
2018-09-15T13:04:40.094Z,100082.17
2018-09-15T13:07:08.882Z,100082.27
2018-09-15T13:09:37.704Z,100073.15
2018-09-15T13:12:06.593Z,100086.59
2018-09-15T13:14:35.239Z,100097.89
2018-09-15T13:17:04.146Z,100082.96
2018-09-15T13:19:32.902Z,100085.94
2018-09-15T13:22:02.053Z,100072.44
2018-09-15T13:24:30.794Z,100085.14
2018-09-15T13:26:59.635Z,100083.26
2018-09-15T13:29:28.405Z,100088.95
2018-09-15T13:31:57.201Z,100079.64
2018-09-15T13:34:25.960Z,100083.57
2018-09-15T13:36:54.658Z,100073.16
2018-09-15T13:39:23.396Z,100070.84
2018-09-15T13:41:52.227Z,100071.73
2018-09-15T13:44:20.910Z,100077.92
2018-09-15T13:46:49.733Z,100080.25
2018-09-15T13:49:18.368Z,100068.13
2018-09-15T13:51:47.179Z,100068.02
2018-09-15T13:54:15.925Z,100068.77
2018-09-15T13:56:44.675Z,100084.06
2018-09-15T13:59:13.431Z,100074.03
2018-09-15T14:01:42.207Z,100064.78
2018-09-15T14:04:10.994Z,100067.09
2018-09-15T14:06:39.779Z,100088.53
2018-09-15T14:09:10.280Z,100072.64
2018-09-15T14:11:39.360Z,100070.25
2018-09-15T14:14:08.402Z,100074.95
2018-09-15T14:16:37.201Z,100070.64
2018-09-15T14:19:06.089Z,100069.67
2018-09-15T14:21:34.831Z,100058.09
2018-09-15T14:24:03.675Z,100075.34
2018-09-15T14:26:32.450Z,100069.36
2018-09-15T14:29:01.150Z,100067.55
2018-09-15T14:31:29.891Z,100070.81
2018-09-15T14:33:58.623Z,100073.55
2018-09-15T14:36:27.339Z,100076.95
2018-09-15T14:38:56.060Z,100068.54
2018-09-15T14:41:24.827Z,100076.12
2018-09-15T14:43:53.678Z,100084.39
2018-09-15T14:46:22.414Z,100078.20
2018-09-15T14:48:51.346Z,100073.07
2018-09-15T14:51:20.026Z,100079.98
2018-09-15T14:53:48.812Z,100070.36
2018-09-15T14:56:17.533Z,100069.36
2018-09-15T14:58:46.326Z,100073.78
2018-09-15T15:01:15.022Z,100074.63
2018-09-15T15:03:43.795Z,100075.55
2018-09-15T15:06:12.739Z,100074.30
2018-09-15T15:08:41.487Z,100081.92
2018-09-15T15:11:10.396Z,100075.02
2018-09-15T15:13:39.170Z,100071.30
2018-09-15T15:16:07.958Z,100072.39
2018-09-15T15:18:36.726Z,100073.29
2018-09-15T15:21:05.429Z,100073.04
2018-09-15T15:23:35.095Z,100072.14
2018-09-15T15:26:03.931Z,100069.62
2018-09-15T15:28:32.609Z,100074.02
2018-09-15T15:31:01.353Z,100079.72
2018-09-15T15:33:30.125Z,100069.67
2018-09-15T15:35:58.834Z,100076.80
2018-09-15T15:38:27.542Z,100072.07
2018-09-15T15:40:56.286Z,100067.01
2018-09-15T15:43:25.042Z,100070.64
2018-09-15T15:45:53.782Z,100071.25
2018-09-15T15:48:22.486Z,100071.13
2018-09-15T15:50:51.241Z,100069.38
2018-09-15T15:53:19.944Z,100070.38
2018-09-15T15:55:48.841Z,100085.64
2018-09-15T15:58:17.572Z,100077.05
2018-09-15T16:00:46.267Z,100079.09
2018-09-15T16:03:15.186Z,100083.71
2018-09-15T16:05:43.971Z,100089.38
2018-09-15T16:08:12.742Z,100088.20
2018-09-15T16:10:41.554Z,100082.59
2018-09-15T16:13:10.238Z,100079.87
2018-09-15T16:15:38.981Z,100076.97
2018-09-15T16:18:07.823Z,100085.63
2018-09-15T16:20:36.534Z,100082.10
2018-09-15T16:23:05.273Z,100091.32
2018-09-15T16:25:34.024Z,100093.52
2018-09-15T16:28:02.691Z,100095.53
2018-09-15T16:30:31.503Z,100104.13
2018-09-15T16:33:00.205Z,100105.17
2018-09-15T16:35:28.909Z,100103.30
2018-09-15T16:37:57.659Z,100099.02
2018-09-15T16:40:26.335Z,100100.66
2018-09-15T16:42:55.071Z,100102.46
2018-09-15T16:45:23.811Z,100099.71
2018-09-15T16:47:52.625Z,100099.13
2018-09-15T16:50:21.358Z,100101.09
2018-09-15T16:52:50.104Z,100097.31
2018-09-15T16:55:19.071Z,100102.59
2018-09-15T16:57:47.804Z,100098.81
2018-09-15T17:00:16.568Z,100099.06
2018-09-15T17:02:45.442Z,100094.80
2018-09-15T17:05:14.188Z,100097.55
2018-09-15T17:07:43.056Z,100103.94
2018-09-15T17:10:11.857Z,100105.02
2018-09-15T17:12:40.586Z,100103.20
2018-09-15T17:15:09.348Z,100104.05
2018-09-15T17:17:38.108Z,100109.17
2018-09-15T17:20:06.946Z,100105.51
2018-09-15T17:22:35.721Z,100113.23
2018-09-15T17:25:04.437Z,100118.14
2018-09-15T17:27:33.212Z,100120.16
2018-09-15T17:30:01.954Z,100122.16
2018-09-15T17:32:30.653Z,100125.48
2018-09-15T17:34:59.368Z,100123.69
2018-09-15T17:37:28.085Z,100123.73
2018-09-15T17:39:56.897Z,100129.91
2018-09-15T17:42:25.616Z,100129.18
2018-09-15T17:44:54.395Z,100135.88
2018-09-15T17:47:23.426Z,100136.80
2018-09-15T17:49:52.225Z,100140.59
2018-09-15T17:52:20.950Z,100143.05
2018-09-15T17:54:49.880Z,100153.80
2018-09-15T17:57:19.092Z,100158.64
2018-09-15T17:59:47.818Z,100170.36
2018-09-15T18:02:16.605Z,100168.20
2018-09-15T18:04:45.676Z,100175.27
2018-09-15T18:07:14.978Z,100180.09
2018-09-15T18:09:44.218Z,100179.19
2018-09-15T18:12:12.847Z,100183.36
2018-09-15T18:14:41.624Z,100182.63
2018-09-15T18:17:10.398Z,100186.05
2018-09-15T18:19:39.282Z,100193.41
2018-09-15T18:22:08.170Z,100197.45
2018-09-15T18:24:36.951Z,100199.41
2018-09-15T18:27:05.735Z,100201.47
2018-09-15T18:29:34.504Z,100195.16
2018-09-15T18:32:03.283Z,100210.58
2018-09-15T18:34:31.969Z,100208.06
2018-09-15T18:37:00.923Z,100207.72
2018-09-15T18:39:29.578Z,100207.52
2018-09-15T18:41:58.322Z,100213.17
2018-09-15T18:44:28.288Z,100215.46
2018-09-15T18:46:57.140Z,100207.92
2018-09-15T18:49:25.935Z,100220.77
2018-09-15T18:51:54.636Z,100229.77
2018-09-15T18:54:23.499Z,100227.42
2018-09-15T18:56:52.289Z,100229.23
2018-09-15T18:59:21.075Z,100232.50
2018-09-15T19:01:49.921Z,100241.59
2018-09-15T19:04:18.675Z,100242.39
2018-09-15T19:06:47.481Z,100243.05
2018-09-15T19:09:16.310Z,100237.98
2018-09-15T19:11:45.064Z,100240.39
2018-09-15T19:14:13.893Z,100252.64
2018-09-15T19:16:42.694Z,100251.82
2018-09-15T19:19:11.456Z,100253.56
2018-09-15T19:21:40.262Z,100258.94
2018-09-15T19:24:09.055Z,100254.34
2018-09-15T19:26:37.849Z,100257.97
2018-09-15T19:29:06.718Z,100268.16
2018-09-15T19:31:35.423Z,100259.20
2018-09-15T19:34:04.182Z,100262.55
2018-09-15T19:36:33.218Z,100263.57
2018-09-15T19:39:01.936Z,100264.46
2018-09-15T19:41:32.395Z,100266.69
2018-09-15T19:44:01.135Z,100271.25
2018-09-15T19:46:29.858Z,100272.42
2018-09-15T19:48:58.610Z,100274.66
2018-09-15T19:51:27.322Z,100275.86
2018-09-15T19:53:56.072Z,100276.59
2018-09-15T19:56:24.855Z,100268.77
2018-09-15T19:58:53.668Z,100272.18
2018-09-15T20:01:22.391Z,100272.06
2018-09-15T20:03:51.187Z,100274.32
2018-09-15T20:06:19.926Z,100274.72
2018-09-15T20:08:48.654Z,100275.50
2018-09-15T20:11:17.548Z,100275.75
2018-09-15T20:13:46.281Z,100275.63
2018-09-15T20:16:13.669Z,100279.19
2018-09-15T20:18:41.022Z,100278.91
2018-09-15T20:21:08.409Z,100276.84
2018-09-15T20:23:37.304Z,100281.09
2018-09-15T20:26:06.078Z,100285.83
2018-09-15T20:28:35.065Z,100289.88
2018-09-15T20:31:03.791Z,100292.33
2018-09-15T20:33:32.565Z,100298.41
2018-09-15T20:36:01.350Z,100297.63
2018-09-15T20:38:30.183Z,100299.42
2018-09-15T20:40:58.951Z,100299.70
2018-09-15T20:43:27.744Z,100301.97
2018-09-15T20:45:56.506Z,100301.12
2018-09-15T20:48:25.232Z,100303.72
2018-09-15T20:50:53.935Z,100302.42
2018-09-15T20:53:22.682Z,100310.61
2018-09-15T20:55:51.374Z,100310.23
2018-09-15T20:58:20.053Z,100307.27
2018-09-15T21:00:48.910Z,100310.75
2018-09-15T21:03:17.645Z,100316.05
2018-09-15T21:05:46.498Z,100317.68
2018-09-15T21:08:15.248Z,100310.31
2018-09-15T21:10:43.976Z,100314.21
2018-09-15T21:13:12.746Z,100312.77
2018-09-15T21:15:41.476Z,100316.29
2018-09-15T21:18:10.263Z,100318.10
2018-09-15T21:20:39.190Z,100318.17
2018-09-15T21:23:08.018Z,100319.92
2018-09-15T21:25:36.818Z,100320.70
2018-09-15T21:28:06.348Z,100332.44
2018-09-15T21:30:35.144Z,100338.22
2018-09-15T21:33:03.927Z,100336.59
2018-09-15T21:35:32.639Z,100341.30
2018-09-15T21:38:01.401Z,100338.11
2018-09-15T21:40:30.091Z,100340.16
2018-09-15T21:42:58.858Z,100344.48
2018-09-15T21:45:27.609Z,100347.27
2018-09-15T21:47:56.371Z,100352.00
2018-09-15T21:50:25.073Z,100346.63
2018-09-15T21:52:53.905Z,100347.84
2018-09-15T21:55:22.753Z,100349.34
2018-09-15T21:57:51.529Z,100351.11
2018-09-15T22:00:20.334Z,100349.08
2018-09-15T22:02:55.351Z,100360.38
2018-09-15T22:05:24.047Z,100363.83
2018-09-15T22:07:52.852Z,100368.53
2018-09-15T22:10:21.640Z,100365.31
2018-09-15T22:12:50.351Z,100364.75
2018-09-15T22:15:29.306Z,100365.11
2018-09-15T22:17:59.051Z,100365.67
2018-09-15T22:20:28.034Z,100366.63
2018-09-15T22:23:03.442Z,100372.33
2018-09-15T22:25:32.144Z,100368.72
2018-09-15T22:28:00.931Z,100367.48
2018-09-15T22:30:29.641Z,100363.27
2018-09-15T22:32:58.384Z,100367.55
2018-09-15T22:35:27.125Z,100371.86
2018-09-15T22:37:55.877Z,100377.92
2018-09-15T22:40:24.641Z,100385.56
2018-09-15T22:42:53.449Z,100385.56
2018-09-15T22:45:22.154Z,100385.31
2018-09-15T22:47:50.920Z,100383.66
2018-09-15T22:50:19.747Z,100376.31
2018-09-15T22:52:48.734Z,100384.44
2018-09-15T22:55:17.465Z,100378.84
2018-09-15T22:57:46.526Z,100375.39
2018-09-15T23:02:49.617Z,100389.59
2018-09-15T23:05:18.374Z,100392.58
2018-09-15T23:07:47.314Z,100390.58
2018-09-15T23:10:16.027Z,100388.70
2018-09-15T23:12:44.748Z,100392.28
2018-09-15T23:15:13.468Z,100395.97
2018-09-15T23:17:42.213Z,100390.81
2018-09-15T23:20:10.942Z,100393.81
2018-09-15T23:22:39.644Z,100392.28
2018-09-15T23:25:08.350Z,100390.88
2018-09-15T23:27:37.097Z,100376.32
2018-09-15T23:30:06.234Z,100367.39
2018-09-15T23:32:34.953Z,100374.27
2018-09-15T23:35:04.954Z,100379.99
2018-09-15T23:37:33.705Z,100382.83
2018-09-15T23:40:02.407Z,100390.29
2018-09-15T23:42:31.155Z,100388.66
2018-09-15T23:44:59.900Z,100382.56
2018-09-15T23:47:28.636Z,100389.37
2018-09-15T23:49:57.362Z,100385.92
2018-09-15T23:52:26.124Z,100387.36
2018-09-15T23:54:54.875Z,100382.22
2018-09-15T23:57:23.558Z,100385.38
2018-09-15T23:59:52.394Z,100390.72
